createdAt,value
2017-07-17T15:47:35.216Z,2.20
2017-07-17T15:50:04.099Z,2.10
2017-07-17T15:52:32.966Z,2.27
2017-07-17T15:55:02.060Z,2.00
2017-07-17T15:57:30.911Z,2.43
2017-07-17T15:59:59.788Z,2.60
2017-07-17T16:02:28.649Z,1.97
2017-07-17T16:04:57.529Z,1.93
2017-07-17T16:07:26.390Z,1.80
2017-07-17T16:09:55.242Z,1.93
2017-07-17T16:12:24.059Z,2.10
2017-07-17T16:14:52.902Z,2.10
2017-07-17T16:17:21.809Z,2.20
2017-07-17T16:19:50.672Z,2.43
2017-07-17T16:22:19.753Z,2.30
2017-07-17T16:24:48.630Z,2.50
2017-07-17T16:27:17.469Z,2.40
2017-07-17T16:29:46.377Z,2.87
2017-07-17T16:32:15.226Z,3.30
2017-07-17T16:34:44.173Z,2.77
2017-07-17T16:37:13.085Z,3.37
2017-07-17T16:39:41.973Z,2.60
2017-07-17T16:42:10.861Z,3.20
2017-07-17T16:44:39.734Z,2.80
2017-07-17T16:47:08.598Z,3.03
2017-07-17T16:49:37.488Z,2.80
2017-07-17T16:52:06.357Z,4.30
2017-07-17T16:54:35.241Z,4.20
2017-07-17T16:57:04.190Z,4.30
2017-07-17T16:59:33.110Z,4.10
2017-07-17T17:02:01.997Z,4.13
2017-07-17T17:04:30.864Z,3.77
2017-07-17T17:06:59.717Z,3.93
2017-07-17T17:09:28.565Z,3.97
2017-07-17T17:11:57.454Z,3.50
2017-07-17T17:14:26.706Z,3.70
2017-07-17T17:16:55.606Z,3.00
2017-07-17T17:19:24.491Z,3.10
2017-07-17T17:21:53.346Z,3.20
2017-07-17T17:24:22.221Z,3.07
2017-07-17T17:26:51.182Z,3.27
2017-07-17T17:29:20.019Z,2.70
2017-07-17T17:31:48.941Z,2.63
2017-07-17T17:34:17.813Z,2.43
2017-07-17T17:36:46.724Z,2.10
2017-07-17T17:39:16.928Z,2.63
2017-07-17T17:41:45.797Z,2.67
2017-07-17T17:44:14.638Z,2.40
2017-07-17T17:46:43.548Z,2.50
2017-07-17T17:49:12.409Z,2.07
2017-07-17T17:51:41.281Z,1.63
2017-07-17T17:54:10.224Z,1.90
2017-07-17T17:56:39.123Z,2.13
2017-07-17T17:59:07.972Z,1.90
2017-07-17T18:01:36.871Z,1.70
2017-07-17T18:04:05.771Z,1.50
2017-07-17T18:06:35.301Z,1.90
2017-07-17T18:09:04.239Z,1.80
2017-07-17T18:11:33.117Z,2.00
2017-07-17T18:14:02.004Z,1.80
2017-07-17T18:16:31.037Z,2.00
2017-07-17T18:18:59.951Z,2.20
2017-07-17T18:21:28.868Z,2.00
2017-07-17T18:23:57.716Z,2.13
2017-07-17T18:26:26.585Z,2.10
2017-07-17T18:28:55.467Z,2.40
2017-07-17T18:31:24.324Z,2.40
2017-07-17T18:33:53.215Z,2.60
2017-07-17T18:36:22.071Z,3.13
2017-07-17T18:38:51.045Z,2.70
2017-07-17T18:41:20.028Z,2.70
2017-07-17T18:43:48.867Z,2.73
2017-07-17T18:46:17.786Z,3.30
2017-07-17T18:48:46.758Z,2.20
2017-07-17T18:51:15.709Z,2.07
2017-07-17T18:53:44.665Z,2.13
2017-07-17T18:56:13.578Z,1.83
2017-07-17T18:58:42.451Z,2.50
2017-07-17T19:01:11.330Z,2.93
2017-07-17T19:03:40.282Z,2.00
2017-07-17T19:06:09.244Z,1.83
2017-07-17T19:08:38.266Z,1.80
2017-07-17T19:11:07.148Z,1.63
2017-07-17T19:13:36.240Z,2.07
2017-07-17T19:16:05.102Z,2.00
2017-07-17T19:18:34.157Z,2.13
2017-07-17T19:21:03.086Z,2.27
2017-07-17T19:23:32.219Z,2.23
2017-07-17T19:26:01.190Z,2.63
2017-07-17T19:28:30.055Z,2.20
2017-07-17T19:30:58.979Z,2.50
2017-07-17T19:33:27.838Z,2.40
2017-07-17T19:35:56.806Z,2.80
2017-07-17T19:38:25.780Z,2.20
2017-07-17T19:40:54.669Z,2.30
2017-07-17T19:43:23.703Z,2.63
2017-07-17T19:45:53.624Z,2.83
2017-07-17T19:48:22.494Z,2.30
2017-07-17T19:50:51.438Z,2.70
2017-07-17T19:53:20.357Z,2.03
2017-07-17T19:55:49.280Z,2.60
2017-07-17T19:58:18.237Z,2.03
2017-07-17T20:00:47.133Z,2.50
2017-07-17T20:03:16.003Z,2.30
2017-07-17T20:05:45.039Z,2.20
2017-07-17T20:08:13.891Z,2.40
2017-07-17T20:10:42.816Z,2.63
2017-07-17T20:13:11.688Z,1.90
2017-07-17T20:15:40.751Z,2.20
2017-07-17T20:18:09.835Z,2.00
2017-07-17T20:20:38.687Z,2.20
2017-07-17T20:23:07.571Z,2.07
2017-07-17T20:25:36.459Z,2.00
2017-07-17T20:28:05.352Z,2.37
2017-07-17T20:30:34.231Z,1.90
2017-07-17T20:33:03.191Z,1.60
2017-07-17T20:35:32.029Z,1.90
2017-07-17T20:38:01.004Z,2.03
2017-07-17T20:40:29.928Z,2.00
2017-07-17T20:42:58.820Z,1.87
2017-07-17T20:45:27.715Z,2.07
2017-07-17T20:47:56.587Z,1.70
2017-07-17T20:50:25.455Z,1.77
2017-07-17T20:52:54.356Z,2.10
2017-07-17T20:55:23.293Z,1.63
2017-07-17T20:57:52.321Z,1.80
2017-07-17T21:00:21.197Z,1.60
2017-07-17T21:02:50.064Z,1.77
2017-07-17T21:05:18.949Z,1.63
2017-07-17T21:07:47.811Z,1.70
2017-07-17T21:10:16.669Z,1.93
2017-07-17T21:12:45.534Z,1.50
2017-07-17T21:15:14.386Z,1.60
2017-07-17T21:17:43.311Z,1.80
2017-07-17T21:20:12.295Z,2.00
2017-07-17T21:22:41.210Z,1.40
2017-07-17T21:25:10.068Z,2.00
2017-07-17T21:27:38.950Z,1.60
2017-07-17T21:30:07.814Z,1.30
2017-07-17T21:32:36.683Z,1.40
2017-07-17T21:35:05.553Z,1.50
2017-07-17T21:37:34.581Z,1.50
2017-07-17T21:40:03.487Z,1.40
2017-07-17T21:42:32.426Z,1.50
2017-07-17T21:45:01.322Z,1.47
2017-07-17T21:47:30.289Z,1.40
2017-07-17T21:49:59.168Z,1.40
2017-07-17T21:52:28.049Z,1.57
2017-07-17T21:54:56.920Z,1.40
2017-07-17T21:57:25.805Z,1.30
2017-07-17T21:59:54.672Z,1.37
2017-07-17T22:02:23.570Z,1.20
2017-07-17T22:04:52.399Z,1.40
2017-07-17T22:07:21.308Z,1.40
2017-07-17T22:09:50.171Z,1.67
2017-07-17T22:12:19.079Z,1.20
2017-07-17T22:14:48.117Z,1.30
2017-07-17T22:17:16.967Z,1.20
2017-07-17T22:19:45.840Z,1.27
2017-07-17T22:22:14.726Z,1.43
2017-07-17T22:24:43.541Z,1.20
2017-07-17T22:27:12.507Z,1.20
2017-07-17T22:29:41.374Z,1.27
2017-07-17T22:32:10.228Z,1.30
2017-07-17T22:34:39.090Z,1.50
2017-07-17T22:37:07.975Z,1.37
2017-07-17T22:39:36.785Z,1.30
2017-07-17T22:42:05.682Z,1.20
2017-07-17T22:44:34.588Z,1.40
2017-07-17T22:47:03.454Z,1.23
2017-07-17T22:49:32.329Z,1.10
2017-07-17T22:52:01.251Z,1.10
2017-07-17T22:54:30.245Z,1.20
2017-07-17T22:56:59.143Z,1.20
2017-07-17T22:59:28.733Z,1.13
2017-07-17T23:01:57.563Z,1.20
2017-07-17T23:04:26.416Z,1.30
2017-07-17T23:06:55.272Z,1.10
2017-07-17T23:09:24.158Z,1.30
2017-07-17T23:11:53.049Z,1.30
2017-07-17T23:14:21.924Z,1.10
2017-07-17T23:16:51.063Z,1.20
2017-07-17T23:19:19.871Z,1.37
2017-07-17T23:21:48.739Z,1.30
2017-07-17T23:24:17.644Z,1.20
2017-07-17T23:26:46.497Z,1.00
2017-07-17T23:29:15.353Z,1.23
2017-07-17T23:31:44.242Z,1.23
2017-07-17T23:34:13.112Z,1.10
2017-07-17T23:36:41.980Z,1.20
2017-07-17T23:39:10.846Z,1.20
2017-07-17T23:41:39.722Z,1.10
2017-07-17T23:44:08.577Z,1.20
2017-07-17T23:46:37.444Z,1.10
2017-07-17T23:49:06.328Z,1.17
2017-07-17T23:51:35.155Z,0.93
2017-07-17T23:54:03.990Z,1.00
2017-07-17T23:56:32.871Z,1.13
2017-07-17T23:59:01.712Z,1.20
